createdAt,value
2018-01-27T00:02:14.190Z,9.70
2018-01-27T00:04:42.539Z,9.62
2018-01-27T00:07:11.786Z,9.86
2018-01-27T00:09:40.372Z,9.98
2018-01-27T00:12:08.660Z,9.58
2018-01-27T00:14:37.028Z,9.82
2018-01-27T00:17:05.547Z,9.75
2018-01-27T00:19:33.864Z,9.83
2018-01-27T00:22:02.951Z,9.83
2018-01-27T00:24:32.054Z,10.03
2018-01-27T00:27:01.152Z,9.91
2018-01-27T00:29:30.244Z,9.92
2018-01-27T00:31:59.381Z,9.93
2018-01-27T00:34:27.721Z,9.76
2018-01-27T00:36:56.055Z,9.67
2018-01-27T00:39:24.571Z,9.79
2018-01-27T00:41:53.672Z,9.91
2018-01-27T00:44:22.784Z,10.13
2018-01-27T00:46:51.564Z,10.08
2018-01-27T00:49:19.895Z,10.11
2018-01-27T00:51:48.232Z,10.00
2018-01-27T00:54:16.585Z,9.99
2018-01-27T00:56:44.970Z,10.03
2018-01-27T00:59:14.082Z,10.06
2018-01-27T01:01:42.651Z,9.98
2018-01-27T01:04:11.761Z,10.12
2018-01-27T01:06:40.842Z,10.14
2018-01-27T01:09:09.998Z,10.01
2018-01-27T01:11:38.303Z,9.94
2018-01-27T01:14:06.635Z,10.16
2018-01-27T01:16:35.015Z,10.13
2018-01-27T01:19:03.721Z,10.13
2018-01-27T01:21:32.047Z,10.26
2018-01-27T01:24:01.771Z,10.17
2018-01-27T01:26:30.080Z,9.79
2018-01-27T01:28:58.405Z,9.84
2018-01-27T01:31:27.532Z,9.66
2018-01-27T01:33:55.833Z,9.41
2018-01-27T01:36:24.155Z,9.36
2018-01-27T01:38:52.483Z,9.37
2018-01-27T01:41:20.818Z,9.49
2018-01-27T01:43:55.939Z,9.50
2018-01-27T01:46:24.249Z,9.42
2018-01-27T01:48:52.565Z,9.58
2018-01-27T01:51:20.962Z,9.48
2018-01-27T01:53:49.305Z,9.24
2018-01-27T01:56:17.610Z,9.51
2018-01-27T01:58:46.210Z,9.59
2018-01-27T02:01:14.506Z,9.72
2018-01-27T02:03:42.816Z,9.71
2018-01-27T02:06:11.415Z,9.71
2018-01-27T02:08:39.727Z,9.53
2018-01-27T02:11:08.069Z,9.55
2018-01-27T02:13:36.384Z,9.47
2018-01-27T02:16:04.722Z,9.46
2018-01-27T02:18:33.058Z,9.49
2018-01-27T02:21:02.798Z,9.56
2018-01-27T02:23:31.119Z,9.56
2018-01-27T02:25:59.426Z,9.64
2018-01-27T02:28:28.309Z,9.71
2018-01-27T02:30:56.648Z,9.76
2018-01-27T02:33:24.949Z,9.62
2018-01-27T02:35:53.760Z,9.56
2018-01-27T02:38:22.853Z,9.52
2018-01-27T02:40:51.143Z,9.52
2018-01-27T02:43:20.296Z,9.35
2018-01-27T02:45:48.602Z,9.26
2018-01-27T02:48:16.917Z,9.32
2018-01-27T02:50:45.732Z,9.12
2018-01-27T02:53:14.052Z,9.34
2018-01-27T02:55:42.401Z,9.23
2018-01-27T02:58:10.795Z,9.56
2018-01-27T03:00:39.099Z,9.43
2018-01-27T03:03:08.238Z,9.37
2018-01-27T03:05:36.581Z,9.43
2018-01-27T03:08:05.679Z,9.31
2018-01-27T03:10:33.985Z,9.21
2018-01-27T03:13:02.957Z,8.94
2018-01-27T03:15:32.013Z,9.06
2018-01-27T03:18:00.364Z,9.00
2018-01-27T03:20:28.730Z,8.85
2018-01-27T03:22:57.412Z,8.59
2018-01-27T03:25:25.756Z,8.69
2018-01-27T03:27:54.903Z,8.53
2018-01-27T03:30:23.283Z,8.73
2018-01-27T03:32:51.636Z,9.05
2018-01-27T03:35:20.185Z,9.24
2018-01-27T03:37:49.277Z,9.39
2018-01-27T03:40:17.628Z,9.10
2018-01-27T03:42:45.994Z,8.76
2018-01-27T03:45:14.367Z,9.07
2018-01-27T03:47:42.674Z,8.64
2018-01-27T03:50:12.091Z,8.91
2018-01-27T03:52:40.408Z,9.03
2018-01-27T03:55:08.729Z,9.17
2018-01-27T03:57:37.376Z,9.12
2018-01-27T04:00:05.700Z,9.06
2018-01-27T04:02:34.008Z,9.09
2018-01-27T04:05:02.333Z,8.95
2018-01-27T04:07:30.616Z,8.82
2018-01-27T04:09:58.922Z,8.82
2018-01-27T04:12:27.263Z,9.08
2018-01-27T04:14:55.645Z,9.09
2018-01-27T04:17:23.963Z,9.22
2018-01-27T04:19:52.866Z,9.26
2018-01-27T04:22:21.956Z,9.41
2018-01-27T04:24:50.296Z,9.22
2018-01-27T04:27:18.892Z,9.20
2018-01-27T04:29:47.208Z,9.43
2018-01-27T04:32:15.520Z,9.67
2018-01-27T04:34:43.847Z,9.73
2018-01-27T04:37:12.180Z,9.82
2018-01-27T04:39:40.487Z,9.96
2018-01-27T04:42:08.896Z,9.92
2018-01-27T04:44:38.003Z,9.83
2018-01-27T04:47:06.391Z,9.82
2018-01-27T04:49:34.800Z,9.92
2018-01-27T04:52:03.217Z,9.87
2018-01-27T04:54:31.594Z,9.91
2018-01-27T04:56:59.972Z,10.03
2018-01-27T04:59:28.353Z,9.89
2018-01-27T05:01:56.757Z,9.88
2018-01-27T05:04:25.847Z,9.83
2018-01-27T05:06:54.966Z,9.88
2018-01-27T05:09:23.318Z,9.80
2018-01-27T05:11:51.653Z,9.81
2018-01-27T05:14:19.995Z,9.71
2018-01-27T05:16:49.135Z,9.61
2018-01-27T05:19:17.474Z,9.54
2018-01-27T05:21:45.820Z,9.18
2018-01-27T05:24:14.196Z,9.29
2018-01-27T05:26:43.192Z,9.52
2018-01-27T05:29:11.571Z,9.63
2018-01-27T05:31:39.953Z,9.57
2018-01-27T05:34:08.281Z,9.64
2018-01-27T05:36:36.645Z,9.44
2018-01-27T05:39:05.804Z,9.46
2018-01-27T05:41:34.658Z,9.51
2018-01-27T05:44:03.075Z,9.50
2018-01-27T05:46:31.440Z,9.76
2018-01-27T05:49:00.144Z,9.75
2018-01-27T05:51:28.522Z,9.72
2018-01-27T05:53:56.935Z,9.60
2018-01-27T05:56:26.096Z,9.47
2018-01-27T05:58:54.509Z,9.47
2018-01-27T06:01:23.676Z,9.41
2018-01-27T06:03:52.165Z,9.43
2018-01-27T06:06:20.554Z,9.32
2018-01-27T06:08:48.940Z,9.18
2018-01-27T06:11:17.519Z,9.32
2018-01-27T06:13:46.602Z,9.32
2018-01-27T06:16:14.976Z,9.35
2018-01-27T06:18:43.957Z,9.25
2018-01-27T06:21:12.350Z,9.20
2018-01-27T06:23:40.645Z,9.17
2018-01-27T06:26:08.984Z,8.92
2018-01-27T06:28:37.312Z,9.03
2018-01-27T06:31:06.450Z,9.20
2018-01-27T06:33:35.246Z,9.03
2018-01-27T06:36:03.692Z,8.77
2018-01-27T06:38:32.112Z,8.81
2018-01-27T06:41:00.540Z,9.10
2018-01-27T06:43:29.704Z,9.37
2018-01-27T06:45:58.054Z,9.05
2018-01-27T06:48:26.448Z,8.89
2018-01-27T06:50:54.975Z,8.96
2018-01-27T06:53:24.188Z,9.00
2018-01-27T06:55:53.999Z,8.80
2018-01-27T06:58:22.448Z,8.99
2018-01-27T07:00:50.787Z,8.78
2018-01-27T07:03:19.157Z,8.66
2018-01-27T07:05:47.603Z,8.83
2018-01-27T07:08:16.813Z,8.90
2018-01-27T07:10:45.296Z,8.78
2018-01-27T07:13:14.497Z,8.75
2018-01-27T07:15:43.591Z,8.92
2018-01-27T07:18:13.439Z,8.87
2018-01-27T07:20:41.783Z,9.04
2018-01-27T07:23:10.121Z,8.99
2018-01-27T07:25:38.496Z,9.05
2018-01-27T07:28:06.877Z,9.05
2018-01-27T07:30:35.283Z,8.90
2018-01-27T07:33:04.134Z,8.85
2018-01-27T07:35:32.539Z,8.93
2018-01-27T07:38:00.920Z,9.02
2018-01-27T07:40:29.474Z,9.04
2018-01-27T07:42:57.863Z,9.05
2018-01-27T07:45:26.276Z,9.23
2018-01-27T07:47:54.748Z,9.22
2018-01-27T07:50:23.065Z,8.98
2018-01-27T07:52:51.405Z,9.13
2018-01-27T07:57:54.964Z,9.12
2018-01-27T08:00:23.682Z,9.10
2018-01-27T08:02:52.066Z,9.19
2018-01-27T08:05:20.534Z,9.32
2018-01-27T08:07:49.362Z,9.34
2018-01-27T08:10:17.674Z,9.47
2018-01-27T08:12:46.008Z,9.37
2018-01-27T08:15:14.404Z,9.39
2018-01-27T08:17:42.868Z,9.38
2018-01-27T08:20:11.237Z,9.38
2018-01-27T08:22:40.041Z,9.17
2018-01-27T08:25:08.428Z,9.54
2018-01-27T08:27:36.769Z,9.72
2018-01-27T08:30:05.151Z,9.73
2018-01-27T08:32:33.520Z,9.77
2018-01-27T08:35:01.959Z,9.85
2018-01-27T08:37:30.545Z,9.68
2018-01-27T08:39:58.897Z,9.25
2018-01-27T08:42:27.385Z,9.58
2018-01-27T08:44:56.208Z,9.46
2018-01-27T08:47:24.541Z,9.50
2018-01-27T08:49:52.851Z,9.40
2018-01-27T08:52:22.033Z,9.60
2018-01-27T08:54:50.423Z,9.50
2018-01-27T08:57:18.789Z,9.52
2018-01-27T08:59:48.192Z,9.71
2018-01-27T09:02:16.675Z,9.73
2018-01-27T09:04:45.118Z,9.73
2018-01-27T09:07:13.841Z,9.26
2018-01-27T09:09:42.231Z,9.57
2018-01-27T09:12:10.532Z,9.46
2018-01-27T09:14:40.044Z,9.66
2018-01-27T09:17:08.382Z,9.64
2018-01-27T09:19:36.720Z,9.67
2018-01-27T09:22:05.317Z,9.88
2018-01-27T09:24:33.661Z,9.66
2018-01-27T09:27:02.831Z,9.84
2018-01-27T09:29:31.786Z,9.60
2018-01-27T09:32:00.199Z,9.58
2018-01-27T09:34:28.522Z,9.57
2018-01-27T09:36:56.878Z,9.62
2018-01-27T09:39:25.969Z,9.46
2018-01-27T09:41:55.127Z,9.26
2018-01-27T09:44:23.556Z,9.38
2018-01-27T09:46:52.692Z,9.58
2018-01-27T09:49:21.092Z,9.70
2018-01-27T09:51:50.682Z,9.40
2018-01-27T09:54:19.093Z,9.60
2018-01-27T09:56:47.474Z,9.63
2018-01-27T09:59:16.134Z,9.78
2018-01-27T10:01:44.501Z,9.62
2018-01-27T10:04:12.926Z,9.58
2018-01-27T10:06:41.287Z,9.62
2018-01-27T10:09:09.628Z,9.93
2018-01-27T10:11:37.971Z,9.98
2018-01-27T10:14:07.268Z,9.73
2018-01-27T10:16:35.595Z,9.89
2018-01-27T10:19:03.932Z,9.73
2018-01-27T10:21:33.057Z,9.43
2018-01-27T10:24:01.396Z,9.08
2018-01-27T10:26:29.756Z,9.44
2018-01-27T10:28:58.085Z,9.49
2018-01-27T10:31:26.428Z,9.58
2018-01-27T10:33:54.786Z,9.49
2018-01-27T10:36:23.444Z,9.38
2018-01-27T10:38:51.747Z,9.47
2018-01-27T10:41:20.087Z,9.10
2018-01-27T10:43:48.531Z,9.07
2018-01-27T10:46:16.889Z,9.23
2018-01-27T10:48:45.225Z,9.43
2018-01-27T10:51:13.579Z,9.60
2018-01-27T10:53:42.699Z,9.90
2018-01-27T10:56:11.786Z,10.18
2018-01-27T10:58:41.645Z,10.03
2018-01-27T11:01:09.994Z,10.07
2018-01-27T11:03:38.519Z,10.13
2018-01-27T11:06:06.882Z,10.26
2018-01-27T11:08:35.232Z,9.94
2018-01-27T11:11:04.357Z,9.89
2018-01-27T11:13:33.109Z,10.42
2018-01-27T11:16:01.441Z,10.65
2018-01-27T11:18:29.786Z,11.08
2018-01-27T11:20:58.366Z,10.95
2018-01-27T11:23:26.696Z,10.43
2018-01-27T11:25:55.056Z,10.41
2018-01-27T11:28:23.412Z,10.24
2018-01-27T11:30:51.722Z,10.30
2018-01-27T11:33:20.071Z,9.86
2018-01-27T11:35:48.398Z,9.89
2018-01-27T11:38:16.713Z,9.71
2018-01-27T11:40:45.021Z,9.62
2018-01-27T11:43:13.585Z,9.71
2018-01-27T11:45:41.891Z,9.54
2018-01-27T11:48:10.237Z,9.78
2018-01-27T11:50:39.058Z,9.75
2018-01-27T11:53:07.421Z,9.99
2018-01-27T11:55:35.769Z,10.08
2018-01-27T11:58:04.123Z,9.89
2018-01-27T12:00:33.231Z,9.85
2018-01-27T12:03:01.576Z,10.13
2018-01-27T12:05:30.179Z,10.12
2018-01-27T12:07:59.296Z,10.09
2018-01-27T12:10:28.388Z,10.12
2018-01-27T12:12:57.535Z,10.04
2018-01-27T12:15:25.881Z,9.45
2018-01-27T12:17:54.219Z,9.69
2018-01-27T12:20:22.597Z,9.58
2018-01-27T12:22:50.968Z,9.74
2018-01-27T12:25:19.293Z,9.14
2018-01-27T12:27:48.175Z,9.35
2018-01-27T12:30:16.511Z,9.37
2018-01-27T12:32:44.857Z,9.40
2018-01-27T12:35:13.225Z,9.85
2018-01-27T12:37:41.524Z,10.31
2018-01-27T12:40:09.872Z,9.93
2018-01-27T12:42:38.218Z,10.01
2018-01-27T12:45:06.564Z,10.17
2018-01-27T12:47:34.891Z,10.13
2018-01-27T12:50:04.328Z,9.90
2018-01-27T12:52:32.730Z,10.12
2018-01-27T12:55:01.063Z,10.59
2018-01-27T12:57:30.189Z,10.71
2018-01-27T12:59:58.528Z,10.99
2018-01-27T13:02:27.637Z,11.59
2018-01-27T13:04:57.028Z,11.90
2018-01-27T13:07:26.139Z,11.68
2018-01-27T13:09:54.523Z,11.41
2018-01-27T13:12:23.249Z,11.72
2018-01-27T13:14:51.575Z,11.36
2018-01-27T13:17:19.901Z,10.66
2018-01-27T13:19:48.257Z,10.88
2018-01-27T13:22:16.612Z,10.66
2018-01-27T13:24:44.974Z,10.69
2018-01-27T13:27:13.349Z,10.96
2018-01-27T13:29:41.673Z,11.37
2018-01-27T13:32:10.084Z,11.71
2018-01-27T13:34:38.757Z,11.99
2018-01-27T13:37:07.350Z,11.63
2018-01-27T13:39:35.667Z,11.13
2018-01-27T13:42:05.264Z,11.29
2018-01-27T13:44:33.560Z,11.47
2018-01-27T13:47:01.902Z,11.61
2018-01-27T13:49:30.272Z,11.80
2018-01-27T13:51:58.777Z,11.11
2018-01-27T13:54:27.117Z,10.87
2018-01-27T13:56:55.970Z,11.05
2018-01-27T13:59:24.343Z,10.57
2018-01-27T14:01:53.505Z,10.58
2018-01-27T14:04:22.016Z,10.59
2018-01-27T14:06:50.426Z,10.03
2018-01-27T14:09:18.862Z,10.41
2018-01-27T14:11:47.237Z,10.49
2018-01-27T14:14:15.627Z,10.69
2018-01-27T14:16:44.044Z,10.68
2018-01-27T14:19:12.992Z,9.87
2018-01-27T14:21:41.478Z,10.09
2018-01-27T14:24:10.352Z,10.26
2018-01-27T14:26:38.852Z,10.26
2018-01-27T14:29:07.157Z,10.38
2018-01-27T14:31:36.247Z,10.20
2018-01-27T14:34:05.536Z,10.40
2018-01-27T14:36:39.764Z,10.38
2018-01-27T14:39:09.045Z,10.30
2018-01-27T14:41:37.464Z,9.96
2018-01-27T14:44:05.833Z,10.15
2018-01-27T14:46:34.387Z,10.25
2018-01-27T14:49:02.753Z,10.00
2018-01-27T14:51:31.086Z,9.80
2018-01-27T14:53:59.706Z,9.53
2018-01-27T14:56:28.049Z,9.31
2018-01-27T14:58:56.488Z,9.44
2018-01-27T15:01:25.129Z,9.47
2018-01-27T15:03:53.592Z,9.74
2018-01-27T15:06:22.008Z,9.53
2018-01-27T15:08:50.444Z,9.64
2018-01-27T15:11:19.663Z,9.99
2018-01-27T15:13:53.854Z,10.03
2018-01-27T15:16:23.034Z,10.10
2018-01-27T15:18:57.171Z,10.13
2018-01-27T15:21:31.020Z,10.27
2018-01-27T15:24:02.883Z,10.08
2018-01-27T15:26:32.926Z,10.07
2018-01-27T15:29:02.138Z,10.03
2018-01-27T15:31:33.631Z,10.04
2018-01-27T15:34:07.486Z,9.86
2018-01-27T15:36:38.729Z,9.69
2018-01-27T15:39:08.166Z,9.45
2018-01-27T15:41:39.700Z,9.44
2018-01-27T15:44:11.330Z,9.55
2018-01-27T15:46:40.755Z,9.53
2018-01-27T15:49:09.900Z,9.64
2018-01-27T15:51:46.131Z,9.64
2018-01-27T15:54:15.781Z,9.74
2018-01-27T15:56:48.498Z,9.61
2018-01-27T15:59:16.900Z,9.91
2018-01-27T16:01:48.665Z,9.84
2018-01-27T16:04:17.411Z,9.83
2018-01-27T16:06:50.201Z,9.74
2018-01-27T16:09:26.330Z,9.92
2018-01-27T16:11:57.291Z,9.70
2018-01-27T16:14:28.333Z,9.94
2018-01-27T16:17:01.847Z,9.87
2018-01-27T16:19:37.449Z,9.95
2018-01-27T16:22:05.756Z,9.93
2018-01-27T16:24:34.472Z,9.73
2018-01-27T16:27:03.038Z,9.59
2018-01-27T16:29:31.357Z,9.61
2018-01-27T16:32:00.460Z,9.64
2018-01-27T16:34:29.525Z,9.22
2018-01-27T16:36:57.861Z,9.09
2018-01-27T16:39:26.210Z,9.05
2018-01-27T16:41:54.543Z,9.05
2018-01-27T16:44:22.914Z,9.05
2018-01-27T16:46:51.505Z,8.97
2018-01-27T16:49:19.814Z,8.96
2018-01-27T16:51:48.885Z,8.81
2018-01-27T16:54:17.250Z,8.82
2018-01-27T16:56:45.616Z,8.84
2018-01-27T16:59:13.932Z,8.92
2018-01-27T17:01:42.293Z,8.63
2018-01-27T17:04:10.622Z,8.61
2018-01-27T17:06:38.924Z,8.70
2018-01-27T17:09:07.696Z,8.38
2018-01-27T17:11:36.270Z,8.22
2018-01-27T17:14:04.611Z,8.00
2018-01-27T17:16:32.952Z,8.01
2018-01-27T17:19:01.277Z,7.87
2018-01-27T17:21:29.669Z,8.12
2018-01-27T17:23:58.819Z,8.15
2018-01-27T17:26:27.173Z,8.16
2018-01-27T17:28:55.513Z,7.97
2018-01-27T17:31:24.926Z,8.05
2018-01-27T17:33:53.276Z,8.05
2018-01-27T17:36:23.145Z,8.11
2018-01-27T17:38:51.533Z,8.05
2018-01-27T17:41:19.873Z,8.13
2018-01-27T17:43:48.194Z,8.18
2018-01-27T17:46:16.607Z,8.29
2018-01-27T17:48:44.955Z,8.46
2018-01-27T17:51:13.303Z,8.25
2018-01-27T17:53:42.503Z,7.94
2018-01-27T17:56:11.643Z,8.17
2018-01-27T17:58:39.953Z,8.03
2018-01-27T18:01:08.290Z,7.93
2018-01-27T18:03:36.674Z,8.01
2018-01-27T18:06:05.031Z,8.09
2018-01-27T18:08:33.396Z,8.08
2018-01-27T18:11:02.508Z,8.07
2018-01-27T18:13:30.849Z,8.08
2018-01-27T18:16:00.268Z,8.28
2018-01-27T18:18:29.373Z,8.14
2018-01-27T18:20:57.728Z,8.19
2018-01-27T18:23:26.105Z,8.00
2018-01-27T18:25:54.462Z,8.08
2018-01-27T18:28:22.869Z,7.94
2018-01-27T18:30:52.038Z,7.90
2018-01-27T18:33:21.153Z,7.88
2018-01-27T18:35:49.527Z,8.24
2018-01-27T18:38:18.087Z,8.18
2018-01-27T18:40:46.422Z,8.12
2018-01-27T18:43:15.559Z,7.98
2018-01-27T18:45:43.906Z,8.14
2018-01-27T18:48:12.344Z,7.71
2018-01-27T18:50:40.685Z,7.89
2018-01-27T18:53:09.031Z,8.09
2018-01-27T18:55:38.123Z,8.03
2018-01-27T18:58:06.492Z,8.11
2018-01-27T19:00:35.200Z,8.18
2018-01-27T19:03:03.517Z,8.08
2018-01-27T19:05:31.827Z,8.11
2018-01-27T19:08:00.204Z,8.14
2018-01-27T19:10:28.509Z,7.93
2018-01-27T19:12:56.863Z,7.85
2018-01-27T19:15:25.252Z,8.05
2018-01-27T19:17:53.609Z,7.93
2018-01-27T19:20:22.090Z,7.88
2018-01-27T19:22:50.698Z,7.90
2018-01-27T19:25:19.936Z,7.87
2018-01-27T19:27:48.300Z,7.94
2018-01-27T19:30:16.657Z,8.09
2018-01-27T19:32:45.845Z,7.84
2018-01-27T19:35:14.225Z,7.83
2018-01-27T19:37:42.681Z,8.04
2018-01-27T19:40:11.087Z,7.96
2018-01-27T19:42:39.472Z,8.14
2018-01-27T19:45:07.946Z,8.17
2018-01-27T19:47:36.278Z,8.23
2018-01-27T19:50:04.725Z,8.06
2018-01-27T19:52:33.193Z,7.87
2018-01-27T19:55:01.686Z,8.00
2018-01-27T19:57:30.915Z,8.04
2018-01-27T19:59:59.354Z,8.06
2018-01-27T20:02:27.714Z,8.20
2018-01-27T20:04:56.156Z,8.06
2018-01-27T20:07:24.750Z,8.18
2018-01-27T20:09:53.145Z,8.28
2018-01-27T20:12:21.537Z,8.24
2018-01-27T20:14:49.981Z,8.28
2018-01-27T20:17:19.134Z,8.29
2018-01-27T20:19:47.519Z,8.41
2018-01-27T20:22:16.002Z,8.37
2018-01-27T20:24:44.474Z,8.46
2018-01-27T20:27:12.854Z,8.32
2018-01-27T20:29:41.541Z,8.42
2018-01-27T20:32:09.895Z,8.50
2018-01-27T20:34:38.304Z,8.44
2018-01-27T20:37:06.752Z,8.36
2018-01-27T20:39:35.113Z,8.49
2018-01-27T20:42:03.520Z,8.49
2018-01-27T20:44:31.960Z,8.45
2018-01-27T20:47:00.365Z,8.37
2018-01-27T20:49:28.780Z,8.37
2018-01-27T20:51:57.378Z,8.67
2018-01-27T20:54:25.748Z,8.50
2018-01-27T20:56:54.092Z,8.43
2018-01-27T20:59:22.466Z,8.41
2018-01-27T21:01:50.786Z,8.32
2018-01-27T21:04:19.113Z,8.45
2018-01-27T21:06:47.467Z,8.45
2018-01-27T21:09:16.537Z,8.39
2018-01-27T21:11:44.888Z,8.55
2018-01-27T21:14:13.526Z,8.69
2018-01-27T21:16:42.641Z,8.54
2018-01-27T21:19:11.018Z,8.53
2018-01-27T21:21:39.691Z,8.72
2018-01-27T21:24:08.799Z,8.57
2018-01-27T21:26:37.137Z,8.53
2018-01-27T21:29:05.511Z,8.42
2018-01-27T21:31:33.826Z,8.48
2018-01-27T21:34:02.186Z,8.33
2018-01-27T21:36:31.364Z,8.52
2018-01-27T21:38:59.687Z,8.49
2018-01-27T21:41:28.026Z,8.49
2018-01-27T21:43:57.212Z,8.26
2018-01-27T21:46:25.571Z,8.21
2018-01-27T21:48:53.957Z,8.31
2018-01-27T21:51:22.316Z,8.56
2018-01-27T21:53:50.648Z,8.43
2018-01-27T21:56:18.979Z,8.38
2018-01-27T21:58:47.533Z,8.24
2018-01-27T22:01:16.646Z,8.18
2018-01-27T22:03:45.024Z,8.20
2018-01-27T22:06:13.381Z,8.38
2018-01-27T22:08:41.690Z,8.33
2018-01-27T22:11:09.984Z,8.35
2018-01-27T22:13:39.120Z,8.30
2018-01-27T22:16:08.217Z,8.09
2018-01-27T22:18:36.530Z,8.40
2018-01-27T22:21:04.929Z,8.39
2018-01-27T22:23:33.241Z,8.27
2018-01-27T22:26:01.566Z,8.19
2018-01-27T22:28:29.941Z,8.36
2018-01-27T22:30:58.542Z,8.30
2018-01-27T22:33:26.844Z,8.29
2018-01-27T22:35:55.192Z,8.16
2018-01-27T22:38:23.550Z,8.30
2018-01-27T22:40:52.658Z,8.10
2018-01-27T22:43:21.099Z,8.09
2018-01-27T22:45:49.485Z,8.29
2018-01-27T22:48:17.812Z,8.38
2018-01-27T22:50:46.229Z,8.26
2018-01-27T22:53:14.616Z,8.17
2018-01-27T22:55:43.006Z,8.08
2018-01-27T22:58:12.126Z,8.24
2018-01-27T23:03:47.567Z,8.11
2018-01-27T23:06:16.661Z,8.01
2018-01-27T23:08:44.970Z,7.74
2018-01-27T23:11:13.371Z,7.87
2018-01-27T23:13:41.796Z,7.76
2018-01-27T23:16:10.101Z,7.90
2018-01-27T23:18:38.577Z,8.08
2018-01-27T23:21:07.675Z,7.84
2018-01-27T23:23:36.016Z,7.82
2018-01-27T23:26:04.575Z,7.64
2018-01-27T23:28:32.915Z,7.58
2018-01-27T23:31:01.886Z,7.60
2018-01-27T23:33:30.285Z,7.49
2018-01-27T23:35:59.474Z,7.49
2018-01-27T23:38:27.772Z,7.48
2018-01-27T23:40:56.161Z,7.49
2018-01-27T23:43:24.508Z,7.65
2018-01-27T23:45:52.983Z,7.59
2018-01-27T23:48:21.462Z,7.56
2018-01-27T23:50:49.794Z,7.56
2018-01-27T23:53:18.198Z,7.69
2018-01-27T23:55:46.605Z,7.60
2018-01-27T23:58:14.932Z,7.61
